Time;durP1;ratioP1;P1;durP2;ratioP2;P2;SDS_P1;SDS_P2;PMS_P1;PMS_P2;Temp;Humidity;BMP_temperature;BMP_pressure;BME280_temperature;BME280_humidity;BME280_pressure;Samples;Min_cycle;Max_cycle;Signal;HPM_P1;HPM_P2
2023/05/29 00:00:52;;;;;;;3.55;1.80;;;18.20;93.20;;;18.54;83.97;101329.69;5158235;28;20045;-80
2023/05/29 00:03:24;;;;;;;3.28;1.60;;;18.10;93.60;;;18.50;84.70;101338.41;5147377;28;20505;-81
2023/05/29 00:05:56;;;;;;;4.22;2.00;;;18.10;94.10;;;18.43;84.60;101341.88;5133385;28;20517;-81
2023/05/29 00:08:28;;;;;;;3.60;2.17;;;18.10;94.40;;;18.40;84.78;101344.50;5149335;28;20043;-76
2023/05/29 00:11:00;;;;;;;3.15;1.80;;;18.00;94.70;;;18.37;85.00;101341.78;5147344;28;20112;-80
2023/05/29 00:13:33;;;;;;;3.72;1.95;;;18.00;95.10;;;18.31;85.08;101337.31;5129426;28;20054;-82
2023/05/29 00:16:06;;;;;;;3.28;1.83;;;17.90;95.40;;;18.27;85.49;101338.19;5134222;28;20046;-79
2023/05/29 00:18:44;;;;;;;5.90;2.08;;;17.90;95.80;;;18.24;85.33;101337.25;5139280;28;20050;-81
2023/05/29 00:21:17;;;;;;;4.30;1.92;;;17.80;95.90;;;18.22;85.62;101333.72;5153523;28;20042;-80
2023/05/29 00:23:49;;;;;;;3.78;1.60;;;17.80;96.20;;;18.20;85.69;101344.25;5138579;28;20046;-80
2023/05/29 00:26:21;;;;;;;3.60;1.92;;;17.80;96.50;;;18.14;86.28;101342.41;5158658;28;20409;-79
2023/05/29 00:29:00;;;;;;;3.60;2.10;;;17.80;96.90;;;18.11;86.57;101345.00;5134769;28;20528;-79
2023/05/29 00:31:32;;;;;;;4.85;2.17;;;17.70;97.30;;;18.06;87.36;101345.81;5132896;28;20043;-79
2023/05/29 00:34:04;;;;;;;3.47;1.73;;;17.60;97.80;;;17.99;87.77;101363.31;5131568;28;20043;-82
2023/05/29 00:36:37;;;;;;;2.53;1.63;;;17.60;98.30;;;17.92;88.19;101343.00;5131519;28;20047;-80
2023/05/29 00:39:10;;;;;;;3.50;2.10;;;17.50;98.70;;;17.86;88.96;101354.34;5130172;28;20066;-81
2023/05/29 00:41:42;;;;;;;3.30;1.77;;;17.40;99.30;;;17.81;89.43;101352.53;5155997;28;20038;-79
2023/05/29 00:44:16;;;;;;;4.85;1.77;;;17.40;99.80;;;17.74;89.72;101354.19;5145841;28;20469;-81
2023/05/29 00:46:50;;;;;;;3.15;1.70;;;17.30;99.90;;;17.66;90.42;101357.53;5142345;28;20051;-80
2023/05/29 00:49:24;;;;;;;4.05;1.92;;;17.30;99.90;;;17.58;90.61;101355.66;5130338;28;20501;-82
2023/05/29 00:51:57;;;;;;;3.67;1.90;;;17.20;99.90;;;17.49;90.92;101363.44;5149876;28;20046;-80
2023/05/29 00:54:30;;;;;;;3.22;2.10;;;17.10;99.90;;;17.44;91.19;101358.97;5136884;28;20043;-79
2023/05/29 00:57:04;;;;;;;3.70;2.00;;;17.10;99.90;;;17.41;91.29;101348.34;5148281;28;20117;-80
2023/05/29 00:59:38;;;;;;;4.57;1.85;;;17.00;99.90;;;17.38;91.66;101349.19;5130893;28;20097;-80
2023/05/29 01:02:10;;;;;;;4.18;1.85;;;17.00;99.90;;;17.37;91.71;101350.06;5147986;28;20118;-81
2023/05/29 01:04:43;;;;;;;2.92;1.77;;;17.00;99.90;;;17.35;91.96;101344.78;5148033;28;20093;-84
2023/05/29 01:07:15;;;;;;;4.85;2.03;;;17.00;99.90;;;17.35;92.44;101343.91;5156087;28;20054;-81
2023/05/29 01:09:47;;;;;;;3.65;1.65;;;16.90;99.90;;;17.30;92.64;101340.31;5130456;28;20054;-81
2023/05/29 01:12:34;;;;;;;4.45;1.88;;;16.90;99.90;;;17.25;93.12;101341.97;5130337;28;20419;-80
2023/05/29 01:15:19;;;;;;;3.53;1.75;;;16.90;99.90;;;17.16;93.50;101341.84;5129971;28;20437;-81
2023/05/29 01:18:09;;;;;;;3.60;1.65;;;16.80;99.90;;;17.13;93.62;101357.56;5130398;28;20047;-81
2023/05/29 01:20:45;;;;;;;3.28;1.85;;;16.80;99.90;;;17.07;93.70;101359.22;5138630;28;20043;-80
2023/05/29 01:23:56;;;;;;;4.35;1.98;;;16.70;99.90;;;17.00;93.88;101365.25;5140122;28;20039;-81
2023/05/29 01:26:51;;;;;;;4.30;2.00;;;16.60;99.90;;;16.97;94.39;101365.22;5139782;28;20535;-80
2023/05/29 01:29:27;;;;;;;3.58;1.80;;;16.60;99.90;;;16.95;94.67;101361.69;5130300;28;20074;-82
2023/05/29 01:32:01;;;;;;;3.65;1.83;;;16.60;99.90;;;16.93;94.70;101360.75;5130464;28;20062;-81
2023/05/29 01:34:33;;;;;;;4.47;1.88;;;16.60;99.90;;;16.90;94.83;101363.34;5130495;28;20456;-81
2023/05/29 01:37:05;;;;;;;3.55;1.83;;;16.50;99.90;;;16.85;94.94;101362.34;5129404;28;20461;-81
2023/05/29 01:39:38;;;;;;;3.22;1.88;;;16.50;99.90;;;16.80;95.11;101367.53;5147611;28;20042;-81
2023/05/29 01:42:12;;;;;;;3.75;1.92;;;16.40;99.90;;;16.78;95.40;101365.75;5128967;28;20043;-80
2023/05/29 01:44:45;;;;;;;4.30;1.95;;;16.40;99.90;;;16.74;95.66;101364.78;5147645;28;20054;-80
2023/05/29 01:47:21;;;;;;;4.97;2.00;;;16.40;99.90;;;16.73;95.67;101367.41;5139832;28;20276;-80
2023/05/29 01:49:54;;;;;;;3.67;1.88;;;16.40;99.90;;;16.72;95.85;101386.69;5129816;28;20469;-82
2023/05/29 01:52:26;;;;;;;4.30;2.25;;;16.40;99.90;;;16.67;95.82;101378.66;5148194;28;20565;-81
2023/05/29 01:54:58;;;;;;;3.95;2.15;;;16.30;99.90;;;16.64;96.18;101378.63;5132047;28;20141;-80
2023/05/29 01:57:31;;;;;;;4.20;1.98;;;16.30;99.90;;;16.59;96.25;101371.47;5144263;28;20043;-80
2023/05/29 02:00:08;;;;;;;3.03;1.77;;;16.30;99.90;;;16.55;96.23;101373.16;5129620;28;20043;-80
2023/05/29 02:02:46;;;;;;;5.10;2.10;;;16.30;99.90;;;16.49;96.36;101373.91;5150701;28;20047;-82
2023/05/29 02:05:18;;;;;;;3.88;1.92;;;16.20;99.90;;;16.44;96.70;101375.59;5151306;28;20038;-80
2023/05/29 02:07:50;;;;;;;5.38;2.67;;;16.20;99.90;;;16.42;96.84;101377.28;5133898;28;20046;-80
2023/05/29 02:10:22;;;;;;;5.55;2.05;;;16.10;99.90;;;16.37;96.73;101383.34;5150890;28;20416;-81
2023/05/29 02:12:57;;;;;;;4.75;1.95;;;16.10;99.90;;;16.33;97.09;101387.63;5134338;28;20402;-82
2023/05/29 02:15:29;;;;;;;3.58;2.10;;;16.10;99.90;;;16.30;97.18;101387.59;5157225;28;20050;-81
2023/05/29 02:18:01;;;;;;;2.35;1.70;;;16.00;99.90;;;16.26;97.09;101391.88;5133106;28;20047;-81
2023/05/29 02:20:34;;;;;;;5.72;2.33;;;16.00;99.90;;;16.25;97.18;101389.22;5133185;28;20042;-81
2023/05/29 02:23:08;;;;;;;5.97;2.22;;;15.90;99.90;;;16.21;97.20;101405.78;5150818;28;20049;-80
2023/05/29 02:25:40;;;;;;;4.55;2.00;;;15.90;99.90;;;16.16;97.13;101410.06;5133396;28;20057;-79
2023/05/29 02:28:14;;;;;;;3.75;2.10;;;15.80;99.90;;;16.16;97.12;101404.78;5133359;28;20057;-81
2023/05/29 02:30:46;;;;;;;4.38;1.73;;;15.80;99.90;;;16.12;97.07;101403.84;5133015;28;20240;-80
2023/05/29 02:33:18;;;;;;;5.32;1.98;;;15.80;99.90;;;16.10;96.96;101410.81;5142229;28;20043;-80
2023/05/29 02:35:50;;;;;;;4.50;1.80;;;15.80;99.90;;;16.10;96.81;101404.66;5139901;28;20390;-81
2023/05/29 02:38:23;;;;;;;4.95;2.17;;;15.80;99.90;;;16.07;97.04;101410.75;5141360;28;20042;-81
2023/05/29 02:40:55;;;;;;;3.75;2.08;;;15.70;99.90;;;16.03;97.04;101411.53;5133667;28;20592;-80
2023/05/29 02:43:28;;;;;;;3.83;2.10;;;15.70;99.90;;;16.00;96.71;101417.63;5133294;28;20046;-81
2023/05/29 02:46:00;;;;;;;3.35;1.73;;;15.70;99.90;;;15.98;96.68;101421.97;5159359;28;20043;-80
2023/05/29 02:48:32;;;;;;;4.03;1.88;;;15.70;99.90;;;15.97;96.71;101429.78;5133691;28;20046;-81
2023/05/29 02:51:04;;;;;;;3.58;1.92;;;15.60;99.90;;;15.93;96.53;101434.09;5152227;28;20054;-81
2023/05/29 02:53:36;;;;;;;4.38;2.00;;;15.60;99.90;;;15.85;96.48;101432.16;5138843;28;20042;-80
2023/05/29 02:56:09;;;;;;;3.65;2.10;;;15.50;99.90;;;15.81;96.43;101427.69;5133103;28;20118;-79
2023/05/29 02:58:42;;;;;;;4.13;2.08;;;15.50;99.90;;;15.74;96.38;101429.28;5158618;28;20050;-81
2023/05/29 03:01:14;;;;;;;5.20;2.22;;;15.40;99.90;;;15.72;96.45;101428.34;5133049;28;20086;-81
2023/05/29 03:03:46;;;;;;;2.55;1.80;;;15.40;99.90;;;15.67;96.08;101428.22;5132918;28;20429;-80
2023/05/29 03:06:18;;;;;;;4.70;1.90;;;15.30;99.90;;;15.61;95.83;101419.28;5150340;28;20042;-81
2023/05/29 03:08:51;;;;;;;3.75;1.95;;;15.30;99.90;;;15.57;95.79;101420.94;5131763;28;20042;-80
2023/05/29 03:11:24;;;;;;;3.58;1.83;;;15.30;99.90;;;15.54;95.72;101417.34;5148131;28;20126;-81
2023/05/29 03:13:58;;;;;;;3.63;1.90;;;15.30;99.90;;;15.50;95.54;101420.75;5148930;28;20042;-78
2023/05/29 03:16:31;;;;;;;3.08;1.83;;;15.20;99.90;;;15.47;95.52;101438.22;5149950;28;20051;-80
2023/05/29 03:19:03;;;;;;;2.92;1.50;;;15.20;99.90;;;15.44;95.39;101437.25;5132601;28;20047;-80
2023/05/29 03:21:36;;;;;;;3.72;2.00;;;15.20;99.90;;;15.41;95.60;101431.94;5160868;23;20049;-82
2023/05/29 03:24:08;;;;;;;3.33;1.90;;;15.10;99.90;;;15.41;95.72;101438.06;5162645;28;20042;-81
2023/05/29 03:26:42;;;;;;;2.47;1.48;;;15.10;99.90;;;15.39;95.66;101439.78;5168987;28;20070;-82
2023/05/29 03:29:18;;;;;;;3.55;1.77;;;15.10;99.90;;;15.37;95.38;101433.56;5167737;28;20092;-82
2023/05/29 03:31:51;;;;;;;3.63;1.65;;;15.10;99.90;;;15.35;95.66;101445.78;5160926;28;20560;-80
2023/05/29 03:34:30;;;;;;;4.82;1.90;;;15.00;99.90;;;15.29;95.74;101442.13;5168951;28;20081;-81
2023/05/29 03:37:04;;;;;;;5.72;1.92;;;15.00;99.90;;;15.23;95.95;101453.34;5175567;28;20051;-81
2023/05/29 03:39:36;;;;;;;3.85;1.90;;;14.90;99.90;;;15.17;96.06;101454.06;5171377;28;20068;-82
2023/05/29 03:42:11;;;;;;;4.57;1.88;;;14.90;99.90;;;15.15;96.21;101454.91;5171081;28;20041;-81
2023/05/29 03:44:44;;;;;;;3.92;1.90;;;14.90;99.90;;;15.15;96.57;101454.91;5153115;28;20114;-81
2023/05/29 03:47:17;;;;;;;3.67;1.83;;;14.90;99.90;;;15.13;96.34;101453.97;5161202;28;20132;-81
2023/05/29 03:49:51;;;;;;;4.63;2.00;;;14.80;99.90;;;15.11;96.49;101453.91;5153155;28;20039;-82
2023/05/29 03:52:24;;;;;;;4.45;2.03;;;14.80;99.90;;;15.07;96.61;101464.31;5161137;28;20057;-82
2023/05/29 03:54:56;;;;;;;3.53;1.70;;;14.80;99.90;;;15.02;96.76;101463.28;5170944;28;20041;-81
2023/05/29 03:57:28;;;;;;;3.45;1.77;;;14.80;99.90;;;15.00;96.85;101467.63;5168608;28;20522;-82
2023/05/29 04:00:01;;;;;;;3.72;1.55;;;14.70;99.90;;;15.00;97.24;101465.00;5157031;28;20145;-82
2023/05/29 04:02:33;;;;;;;2.95;1.73;;;14.70;99.90;;;14.99;97.06;101466.69;5165424;28;20404;-81
2023/05/29 04:05:07;;;;;;;3.03;1.77;;;14.70;99.90;;;14.99;97.30;101463.19;5156256;28;20110;-82
2023/05/29 04:07:39;;;;;;;4.43;2.00;;;14.70;99.90;;;14.96;97.10;101458.75;5159870;28;20049;-84
2023/05/29 04:10:11;;;;;;;4.13;1.85;;;14.70;99.90;;;14.98;97.29;101482.41;5173737;28;20136;-84
2023/05/29 04:12:44;;;;;;;4.90;1.85;;;14.70;99.90;;;14.97;97.26;101475.41;5159580;28;20140;-84
2023/05/29 04:15:17;;;;;;;3.35;2.03;;;14.70;99.90;;;14.97;96.97;101480.66;5179139;28;20065;-82
2023/05/29 04:17:49;;;;;;;4.25;1.73;;;14.70;99.90;;;15.00;97.08;101475.50;5170843;28;20042;-84
2023/05/29 04:20:21;;;;;;;3.90;2.00;;;14.70;99.90;;;15.00;97.06;101484.25;5153692;28;20046;-82
2023/05/29 04:22:53;;;;;;;4.15;1.90;;;14.70;99.90;;;14.99;97.05;101479.81;5164685;28;20053;-82
2023/05/29 04:25:26;;;;;;;3.58;1.83;;;14.70;99.90;;;15.02;97.53;101473.78;5184558;28;20041;-85
2023/05/29 04:28:01;;;;;;;3.55;1.55;;;14.80;99.90;;;15.06;97.00;101480.88;5174388;28;20413;-85
2023/05/29 04:30:36;;;;;;;4.75;1.73;;;14.80;99.90;;;15.07;97.15;101478.31;5175526;28;20034;-85
2023/05/29 04:33:09;;;;;;;4.35;1.88;;;14.80;99.90;;;15.09;97.35;101483.63;5166638;28;20089;-84
2023/05/29 04:35:43;;;;;;;4.28;1.75;;;14.80;99.90;;;15.07;97.10;101490.56;5170165;28;20045;-86
2023/05/29 04:38:16;;;;;;;3.95;1.65;;;14.80;99.90;;;15.07;97.08;101499.34;5153619;28;20089;-86
2023/05/29 04:40:48;;;;;;;4.88;2.00;;;14.90;99.90;;;15.06;96.56;101501.91;5154518;28;20104;-86
2023/05/29 04:43:26;;;;;;;4.40;2.10;;;14.80;99.90;;;15.08;96.93;101500.22;5165042;28;20048;-85
2023/05/29 04:46:12;;;;;;;4.80;1.85;;;14.80;99.90;;;15.10;96.86;101501.16;5155312;28;20479;-85
2023/05/29 04:48:44;;;;;;;4.85;2.30;;;14.80;99.90;;;15.14;97.31;101505.66;5178416;28;20037;-85
2023/05/29 04:51:19;;;;;;;4.22;2.38;;;14.90;99.90;;;15.24;97.19;101509.41;5170905;28;20039;-86
2023/05/29 04:53:52;;;;;;;3.70;2.38;;;15.00;99.90;;;15.45;96.93;101509.97;5156159;28;20069;-86
2023/05/29 04:56:24;;;;;;;4.38;2.03;;;15.20;99.90;;;15.68;95.60;101510.59;5158706;28;20038;-86
2023/05/29 04:58:58;;;;;;;4.93;2.28;;;15.40;99.90;;;15.82;94.33;101509.19;5175389;28;20069;-85
2023/05/29 05:01:33;;;;;;;5.93;2.70;;;15.50;99.90;;;15.96;93.84;101515.69;5176878;28;20476;-86
2023/05/29 05:04:06;;;;;;;6.15;2.15;;;15.60;99.90;;;16.07;92.93;101515.06;5167732;28;20042;-85
2023/05/29 05:06:38;;;;;;;7.60;2.45;;;15.80;99.90;;;16.19;92.03;101517.97;5173879;28;20056;-85
2023/05/29 05:09:12;;;;;;;5.57;2.50;;;15.90;99.90;;;16.34;91.56;101515.69;5171570;28;20057;-85
2023/05/29 05:11:44;;;;;;;8.07;2.50;;;16.00;99.90;;;16.46;90.89;101525.59;5166849;28;20515;-86
2023/05/29 05:14:17;;;;;;;6.05;2.80;;;16.10;99.90;;;16.53;89.89;101523.13;5170243;28;20068;-86
2023/05/29 05:16:51;;;;;;;7.78;2.75;;;16.20;99.90;;;16.62;89.80;101526.81;5176083;28;20042;-85
2023/05/29 05:19:23;;;;;;;7.60;2.45;;;16.30;99.90;;;16.74;89.33;101528.00;5177557;28;20042;-85
2023/05/29 05:21:55;;;;;;;5.60;2.60;;;16.30;99.90;;;16.84;88.31;101536.13;5175714;28;20046;-83
2023/05/29 05:24:28;;;;;;;5.55;2.35;;;16.50;99.90;;;16.84;87.85;101523.84;5163977;28;20431;-85
2023/05/29 05:27:02;;;;;;;6.57;2.78;;;16.50;99.90;;;16.94;88.02;101527.53;5157596;28;20058;-85
2023/05/29 05:29:34;;;;;;;6.07;2.33;;;16.60;99.90;;;17.08;87.37;101526.97;5165691;28;20042;-84
2023/05/29 05:32:08;;;;;;;6.78;2.63;;;16.70;99.90;;;17.26;86.71;101533.44;5183633;28;20057;-85
2023/05/29 05:34:41;;;;;;;6.45;2.58;;;16.80;99.90;;;17.43;85.57;101542.56;5175337;28;20581;-85
2023/05/29 05:37:13;;;;;;;7.38;3.25;;;17.00;99.90;;;17.51;84.98;101546.22;5168652;28;20508;-84
2023/05/29 05:39:47;;;;;;;8.82;2.95;;;17.10;99.90;;;17.58;84.39;101537.56;5156003;28;20042;-86
2023/05/29 05:42:20;;;;;;;7.88;2.92;;;17.10;99.90;;;17.70;84.26;101547.44;5169974;28;20042;-85
2023/05/29 05:45:06;;;;;;;6.65;2.53;;;17.20;99.90;;;17.81;84.07;101550.31;5159130;28;20241;-85
2023/05/29 05:47:40;;;;;;;5.30;2.33;;;17.30;99.90;;;18.02;82.94;101555.06;5155419;28;20046;-85
2023/05/29 05:50:14;;;;;;;6.10;2.42;;;17.50;99.90;;;18.15;82.10;101550.00;5166738;28;20049;-85
2023/05/29 05:52:48;;;;;;;5.22;2.50;;;17.70;99.40;;;18.30;81.77;101538.78;5164801;28;20424;-87
2023/05/29 05:55:21;;;;;;;9.43;2.47;;;17.80;99.20;;;18.42;81.22;101535.44;5171951;28;20042;-88
2023/05/29 05:57:55;;;;;;;6.50;2.70;;;17.90;98.90;;;18.53;80.09;101544.41;5178811;28;20045;-88
2023/05/29 06:00:27;;;;;;;8.18;2.47;;;18.00;98.50;;;18.67;80.12;101542.88;5196189;28;20370;-87
2023/05/29 06:03:04;;;;;;;7.75;2.88;;;18.10;98.40;;;18.79;80.06;101551.81;5169867;28;20042;-85
2023/05/29 06:06:00;;;;;;;6.68;2.13;;;18.30;98.30;;;18.93;80.02;101555.53;5152762;28;20046;-83
2023/05/29 06:08:32;;;;;;;10.40;2.60;;;18.40;98.20;;;19.02;79.03;101555.63;5166813;28;20053;-83
2023/05/29 06:11:04;;;;;;;8.35;3.20;;;18.40;97.70;;;19.11;77.89;101565.44;5160719;28;20046;-82
2023/05/29 06:13:38;;;;;;;9.02;2.72;;;18.60;97.30;;;19.11;77.72;101568.09;5153653;28;20046;-82
2023/05/29 06:16:15;;;;;;;7.45;2.88;;;18.60;97.00;;;19.15;78.55;101568.13;5152896;28;20050;-82
2023/05/29 06:18:49;;;;;;;4.65;2.22;;;18.60;97.30;;;19.27;77.83;101566.50;5162803;28;20040;-83
2023/05/29 06:21:23;;;;;;;6.75;2.25;;;18.70;97.00;;;19.37;77.82;101569.28;5154975;28;20142;-83
2023/05/29 06:24:00;;;;;;;7.18;2.65;;;18.80;96.90;;;19.57;77.28;101560.66;5159992;28;20069;-84
2023/05/29 06:26:32;;;;;;;7.68;2.35;;;18.90;96.80;;;19.72;75.98;101569.66;5168961;28;20046;-83
2023/05/29 06:29:06;;;;;;;5.90;2.28;;;19.10;96.20;;;19.78;76.21;101576.78;5161596;28;20540;-85
2023/05/29 06:31:38;;;;;;;8.95;2.60;;;19.10;96.00;;;19.93;76.16;101570.72;5161178;28;20453;-83
2023/05/29 06:34:11;;;;;;;5.93;2.33;;;19.30;96.00;;;20.08;75.70;101567.31;5167513;28;20046;-83
2023/05/29 06:36:43;;;;;;;8.35;2.90;;;19.40;95.80;;;20.21;75.01;101567.44;5175075;28;20504;-83
2023/05/29 06:39:17;;;;;;;5.60;2.70;;;19.60;95.30;;;20.36;74.38;101571.06;5173171;28;20042;-84
2023/05/29 06:41:50;;;;;;;7.13;2.50;;;19.70;95.00;;;20.62;73.99;101574.81;5160223;28;20046;-82
2023/05/29 06:44:24;;;;;;;6.32;2.58;;;19.90;94.80;;;20.72;73.05;101576.59;5155636;28;20595;-83
2023/05/29 06:46:56;;;;;;;8.27;2.90;;;20.00;94.20;;;20.71;72.54;101574.84;5182870;28;20050;-82
2023/05/29 06:49:29;;;;;;;7.18;2.55;;;20.00;93.70;;;20.81;72.00;101576.69;5167804;28;20056;-84
2023/05/29 06:52:01;;;;;;;9.02;3.17;;;20.10;93.40;;;20.92;72.40;101581.13;5168681;28;20479;-82
2023/05/29 06:54:56;;;;;;;5.72;2.03;;;20.20;93.50;;;21.09;71.46;101577.69;5180220;28;20050;-83
2023/05/29 06:57:28;;;;;;;7.72;2.55;;;20.40;93.00;;;21.18;71.29;101576.81;5160383;28;20042;-83
2023/05/29 07:00:00;;;;;;;7.18;2.30;;;20.40;92.80;;;21.18;70.80;101571.50;5175884;28;20503;-83
2023/05/29 07:02:34;;;;;;;8.02;3.08;;;20.50;92.50;;;21.28;71.58;101580.41;5159662;28;20089;-81
2023/05/29 07:05:08;;;;;;;7.05;2.60;;;20.60;92.70;;;21.53;70.72;101579.63;5165866;28;20046;-84
2023/05/29 07:07:42;;;;;;;8.20;2.72;;;20.70;92.40;;;21.40;69.59;101572.53;5174276;28;20054;-84
2023/05/29 07:10:17;;;;;;;6.88;2.45;;;20.70;91.50;;;21.45;70.73;101575.16;5179888;28;20106;-83
2023/05/29 07:12:49;;;;;;;8.57;2.67;;;20.70;92.00;;;21.54;70.45;101580.50;5184886;28;20500;-83
2023/05/29 07:15:21;;;;;;;6.40;2.80;;;20.70;91.90;;;21.71;70.69;101578.75;5177945;28;20061;-82
2023/05/29 07:17:53;;;;;;;6.88;2.70;;;20.90;92.10;;;21.79;68.84;101582.31;5195703;28;20049;-83
2023/05/29 07:20:31;;;;;;;7.00;2.67;;;21.00;91.10;;;21.92;69.49;101576.13;5179672;28;20042;-83
2023/05/29 07:23:04;;;;;;;7.97;2.28;;;21.10;91.30;;;22.10;69.51;101572.59;5195138;28;20103;-83
2023/05/29 07:25:38;;;;;;;6.60;2.78;;;21.30;91.30;;;22.29;68.71;101583.22;5188692;28;20041;-83
2023/05/29 07:28:10;;;;;;;7.35;2.15;;;21.40;90.80;;;22.44;68.09;101578.78;5200697;28;20504;-80
2023/05/29 07:30:42;;;;;;;8.55;2.65;;;21.60;90.50;;;22.71;66.94;101576.97;5182641;28;20022;-81
2023/05/29 07:33:15;;;;;;;7.13;2.42;;;21.80;90.00;;;22.87;65.88;101573.38;5183786;28;20459;-82
2023/05/29 07:35:50;;;;;;;6.75;2.75;;;22.00;88.40;;;22.88;65.58;101580.47;5195820;28;20053;-83
2023/05/29 07:38:23;;;;;;;6.40;2.30;;;22.00;87.30;;;22.90;65.75;101581.34;5191838;28;20049;-81
2023/05/29 07:40:55;;;;;;;7.53;2.55;;;22.10;87.20;;;22.88;65.86;101577.81;5180570;28;20056;-82
2023/05/29 07:43:38;;;;;;;5.75;2.13;;;22.10;87.10;;;22.87;66.73;101594.66;5161905;28;20046;-82
2023/05/29 07:46:13;;;;;;;5.07;1.80;;;22.00;87.60;;;22.93;66.58;101593.75;5178646;28;20059;-82
2023/05/29 07:48:47;;;;;;;6.18;2.22;;;22.10;87.50;;;23.10;66.06;101588.38;5169032;28;20590;-81
2023/05/29 07:51:21;;;;;;;7.88;2.38;;;22.10;87.00;;;23.24;65.61;101589.19;5178834;28;20535;-82
2023/05/29 07:53:55;;;;;;;5.78;2.13;;;22.30;86.50;;;23.27;65.04;101592.69;5185059;28;20072;-82
2023/05/29 07:56:27;;;;;;;6.72;2.05;;;22.30;85.90;;;23.26;64.90;101590.06;5182118;28;20056;-81
2023/05/29 07:58:59;;;;;;;6.38;2.20;;;22.30;85.50;;;23.31;65.46;101590.03;5189259;28;20048;-83
2023/05/29 08:01:32;;;;;;;7.93;2.30;;;22.20;86.60;;;23.51;64.75;101591.69;5184105;28;20041;-82
2023/05/29 08:04:04;;;;;;;5.85;2.08;;;22.30;85.90;;;23.79;64.23;101602.19;5186704;28;20048;-82
2023/05/29 08:06:42;;;;;;;7.85;2.42;;;22.50;85.60;;;24.03;63.48;101594.03;5191834;28;20049;-83
2023/05/29 08:09:15;;;;;;;7.40;2.15;;;22.60;84.70;;;24.44;62.14;101600.78;5185753;28;20500;-83
2023/05/29 08:11:47;;;;;;;6.30;2.40;;;22.90;83.80;;;24.82;60.63;101597.72;5201262;28;20038;-83
2023/05/29 08:14:19;;;;;;;7.20;1.90;;;23.10;82.60;;;25.29;59.72;101592.72;5206387;28;20427;-81
2023/05/29 08:16:51;;;;;;;4.65;1.92;;;23.30;82.00;;;25.78;59.38;101602.75;5190835;28;20050;-80
2023/05/29 08:19:24;;;;;;;7.43;2.20;;;23.60;81.70;;;26.32;57.74;101605.41;5190621;28;20583;-79
2023/05/29 08:21:58;;;;;;;6.60;1.88;;;23.90;80.40;;;26.86;56.29;101599.97;5203707;28;20049;-80
2023/05/29 08:24:30;;;;;;;4.78;2.08;;;24.20;79.30;;;27.27;54.63;101602.72;5202452;28;20463;-80
2023/05/29 08:27:02;;;;;;;6.28;1.92;;;24.30;77.40;;;27.64;53.67;101598.31;5187141;28;20046;-80
2023/05/29 08:29:35;;;;;;;6.10;2.10;;;24.40;76.80;;;28.42;53.27;101599.09;5189685;28;20049;-79
2023/05/29 08:32:07;;;;;;;5.85;2.00;;;24.70;77.30;;;29.24;51.33;101596.78;5188695;28;20056;-80
2023/05/29 08:34:41;;;;;;;7.13;2.20;;;25.10;75.80;;;30.31;49.85;101601.44;5184279;28;20041;-82
2023/05/29 08:37:14;;;;;;;6.22;2.10;;;25.80;75.00;;;31.40;47.93;101598.34;5206192;28;20037;-79
2023/05/29 08:39:46;;;;;;;5.32;1.90;;;26.70;72.50;;;32.09;46.00;101593.75;5194789;28;20048;-79
2023/05/29 08:42:24;;;;;;;4.22;2.08;;;27.50;69.10;;;32.81;44.48;101597.81;5186327;28;20053;-79
2023/05/29 08:44:58;;;;;;;6.65;1.90;;;28.30;66.50;;;33.41;43.22;101604.06;5175590;28;20436;-79
2023/05/29 08:47:34;;;;;;;5.65;1.92;;;29.00;64.10;;;33.80;42.49;101594.97;5185232;28;20049;-79
2023/05/29 08:50:09;;;;;;;5.53;2.20;;;29.50;62.00;;;34.10;41.71;101601.53;5172008;28;20050;-78
2023/05/29 08:52:42;;;;;;;5.78;1.98;;;30.00;60.60;;;34.22;41.88;101598.22;5196891;28;20144;-80
2023/05/29 08:55:14;;;;;;;;;;;30.10;59.80;;;34.14;41.84;101595.03;5187016;28;20467;-82
2023/05/29 08:57:47;;;;;;;6.13;2.05;;;30.20;59.10;;;34.16;41.09;101587.69;5178215;28;19922;-81
2023/05/29 09:00:22;;;;;;;7.38;2.10;;;30.20;58.40;;;34.20;41.07;101599.25;5185707;28;20056;-80
2023/05/29 09:02:55;;;;;;;6.40;1.95;;;30.20;57.90;;;34.01;41.12;101599.31;5198618;28;20244;-81
2023/05/29 09:05:27;;;;;;;8.85;2.40;;;30.20;57.60;;;34.13;41.28;101587.00;5199575;28;20052;-80
2023/05/29 09:08:02;;;;;;;4.75;1.83;;;30.30;57.60;;;34.28;40.95;101592.47;5199925;28;20169;-81
2023/05/29 09:10:34;;;;;;;6.68;2.20;;;30.50;57.10;;;34.27;40.93;101595.28;5180434;28;20049;-82
2023/05/29 09:13:07;;;;;;;6.53;2.13;;;30.60;56.80;;;34.14;41.00;101592.31;5172175;28;20534;-81
2023/05/29 09:15:40;;;;;;;4.45;1.73;;;30.50;56.70;;;33.87;41.86;101588.28;5192961;28;20046;-81
2023/05/29 09:18:12;;;;;;;4.20;1.63;;;30.40;57.00;;;33.48;42.10;101586.59;5203669;28;20076;-81
2023/05/29 09:20:44;;;;;;;6.15;2.15;;;30.30;56.90;;;32.95;42.86;101576.50;5191143;28;20161;-80
2023/05/29 09:23:19;;;;;;;8.23;2.20;;;30.10;57.10;;;32.29;43.35;101581.22;5232792;23;20046;-78
2023/05/29 09:25:54;;;;;;;4.53;2.10;;;29.70;57.20;;;31.47;44.29;101578.31;5155352;28;20100;-82
2023/05/29 09:28:28;;;;;;;5.57;2.45;;;29.20;57.80;;;30.53;46.08;101572.84;5173826;28;20046;-79
2023/05/29 09:31:00;;;;;;;7.65;2.53;;;28.70;58.40;;;29.52;48.01;101585.22;5181654;28;20468;-80
2023/05/29 09:33:32;;;;;;;4.93;2.03;;;28.10;59.40;;;28.65;49.36;101581.47;5169985;28;20125;-82
2023/05/29 09:36:04;;;;;;;5.05;1.70;;;27.50;60.10;;;28.07;50.88;101587.47;5175155;28;20038;-79
2023/05/29 09:38:38;;;;;;;5.90;1.75;;;27.00;61.50;;;27.59;52.18;101585.03;5172963;28;20040;-80
2023/05/29 09:41:10;;;;;;;5.97;2.13;;;26.60;62.30;;;27.18;53.20;101570.78;5173776;28;20038;-78
2023/05/29 09:43:46;;;;;;;4.28;1.70;;;26.30;63.30;;;26.96;54.41;101567.66;5156420;28;20431;-80
2023/05/29 09:46:18;;;;;;;8.13;2.40;;;26.10;64.30;;;26.69;55.13;101571.78;5154510;28;20042;-82
2023/05/29 09:48:50;;;;;;;5.35;2.08;;;25.80;64.80;;;26.50;55.51;101573.03;5149576;28;20101;-84
2023/05/29 09:51:24;;;;;;;4.38;1.80;;;25.70;65.30;;;26.43;55.81;101566.03;5172340;28;20043;-81
2023/05/29 09:54:00;;;;;;;6.40;2.10;;;25.50;65.60;;;26.38;55.58;101562.53;5169041;28;20249;-82
2023/05/29 09:56:33;;;;;;;5.72;2.17;;;25.50;65.60;;;26.28;56.61;101571.63;5190270;28;20046;-83
2023/05/29 09:59:06;;;;;;;3.53;1.60;;;25.40;66.30;;;26.32;56.79;101568.00;5182534;28;20416;-82
2023/05/29 10:01:41;;;;;;;4.75;1.90;;;25.40;66.80;;;26.27;56.76;101575.19;5184821;28;20507;-83
2023/05/29 10:04:14;;;;;;;5.85;1.80;;;25.30;66.80;;;26.16;57.10;101575.41;5164196;28;20055;-79
2023/05/29 10:06:49;;;;;;;4.43;1.98;;;25.30;67.00;;;26.11;57.04;101575.47;5191055;28;20034;-82
2023/05/29 10:09:25;;;;;;;5.30;1.98;;;25.30;67.00;;;26.11;56.66;101569.25;5184401;28;20527;-81
2023/05/29 10:12:00;;;;;;;4.65;1.60;;;25.30;66.80;;;26.25;56.65;101567.22;5163534;28;20064;-82
2023/05/29 10:14:33;;;;;;;5.03;1.65;;;25.30;66.90;;;26.27;56.66;101561.84;5171667;28;20050;-81
2023/05/29 10:17:09;;;;;;;6.25;1.90;;;25.30;66.90;;;26.25;57.06;101549.38;5170047;28;20057;-80
2023/05/29 10:19:42;;;;;;;6.93;2.20;;;25.40;67.20;;;26.11;57.39;101554.09;5186763;28;20246;-83
2023/05/29 10:22:16;;;;;;;5.07;1.90;;;25.30;67.30;;;26.16;58.15;101557.59;5170767;28;20390;-83
2023/05/29 10:24:51;;;;;;;4.90;1.90;;;25.30;68.20;;;26.14;58.17;101558.50;5168327;28;20077;-83
2023/05/29 10:27:23;;;;;;;4.30;1.63;;;25.30;68.20;;;26.00;58.33;101566.75;5193882;28;20054;-83
2023/05/29 10:30:05;;;;;;;5.50;1.90;;;25.20;68.30;;;25.87;58.55;101560.75;5178199;28;20046;-83
2023/05/29 10:32:45;;;;;;;4.18;1.55;;;25.10;68.50;;;25.96;59.57;101565.06;5195312;28;20080;-82
2023/05/29 10:35:26;;;;;;;3.85;1.60;;;25.10;69.40;;;25.93;58.72;101562.44;5161310;28;20043;-83
2023/05/29 10:38:09;;;;;;;4.68;1.52;;;25.10;69.40;;;25.93;59.11;101563.31;5184598;28;20508;-81
2023/05/29 10:40:44;;;;;;;5.38;1.80;;;25.10;69.10;;;25.85;59.27;101561.69;5176742;28;20049;-82